createdAt,value
2019-01-21T00:04:46.249Z,65.30
2019-01-21T00:09:38.349Z,79.07
2019-01-21T00:14:30.812Z,57.87
2019-01-21T00:19:23.144Z,62.60
2019-01-21T00:24:15.425Z,57.70
2019-01-21T00:29:08.017Z,61.87
2019-01-21T00:34:00.472Z,59.30
2019-01-21T00:38:53.061Z,53.67
2019-01-21T00:43:45.209Z,50.20
2019-01-21T00:48:37.511Z,55.53
2019-01-21T00:53:29.797Z,56.63
2019-01-21T00:58:22.081Z,47.50
2019-01-21T01:03:14.560Z,59.90
2019-01-21T01:08:07.040Z,50.57
2019-01-21T01:12:59.569Z,47.17
2019-01-21T01:17:51.733Z,45.17
2019-01-21T01:22:44.312Z,58.23
2019-01-21T01:27:36.436Z,51.10
2019-01-21T01:32:28.685Z,49.33
2019-01-21T01:37:20.936Z,47.30
2019-01-21T01:42:13.360Z,57.17
2019-01-21T01:47:05.889Z,53.93
2019-01-21T01:51:57.924Z,53.93
2019-01-21T01:56:50.484Z,51.63
2019-01-21T02:01:42.916Z,54.10
2019-01-21T02:06:35.330Z,52.40
2019-01-21T02:11:27.587Z,52.43
2019-01-21T02:16:19.948Z,50.83
2019-01-21T02:21:12.377Z,50.57
2019-01-21T02:26:05.904Z,50.70
2019-01-21T02:31:06.847Z,53.03
2019-01-21T02:36:36.667Z,51.30
2019-01-21T02:41:32.201Z,52.57
2019-01-21T02:46:45.480Z,55.57
2019-01-21T02:51:49.556Z,56.23
2019-01-21T02:56:53.704Z,47.73
2019-01-21T03:01:52.001Z,52.53
2019-01-21T03:06:52.736Z,51.17
2019-01-21T03:12:04.869Z,65.27
2019-01-21T03:17:20.707Z,59.47
2019-01-21T03:22:31.211Z,69.87
2019-01-21T03:27:56.176Z,47.13
2019-01-21T03:33:12.122Z,53.03
2019-01-21T03:38:15.829Z,48.37
2019-01-21T03:43:13.764Z,48.43
2019-01-21T03:48:16.566Z,49.87
2019-01-21T03:53:20.161Z,47.47
2019-01-21T03:58:18.362Z,45.53
2019-01-21T04:03:28.306Z,49.50
2019-01-21T04:08:56.243Z,45.87
2019-01-21T04:14:14.000Z,44.87
2019-01-21T04:19:18.118Z,48.80
2019-01-21T04:24:28.434Z,52.03
2019-01-21T04:29:38.350Z,52.20
2019-01-21T04:34:51.889Z,58.90
2019-01-21T04:39:53.077Z,53.37
2019-01-21T04:44:57.641Z,51.77
2019-01-21T04:50:07.801Z,49.27
2019-01-21T04:55:09.172Z,53.97
2019-01-21T05:00:04.506Z,50.27
2019-01-21T05:05:05.698Z,47.27
2019-01-21T05:10:09.485Z,51.00
2019-01-21T05:15:04.614Z,56.93
2019-01-21T05:20:17.881Z,54.50
2019-01-21T05:25:32.124Z,56.63
2019-01-21T05:30:30.455Z,54.67
2019-01-21T05:35:42.821Z,71.13
2019-01-21T05:40:50.053Z,62.33
2019-01-21T05:46:16.491Z,62.50
2019-01-21T05:51:34.180Z,60.67
2019-01-21T05:56:51.716Z,58.73
2019-01-21T06:02:19.999Z,54.60
2019-01-21T06:07:28.433Z,52.17
2019-01-21T06:12:35.113Z,48.43
2019-01-21T06:17:48.125Z,52.40
2019-01-21T06:22:48.958Z,56.73
2019-01-21T06:27:53.225Z,164.00
2019-01-21T06:32:48.389Z,58.23
2019-01-21T06:37:46.133Z,104.90
2019-01-21T06:42:57.700Z,94.67
2019-01-21T06:48:22.633Z,116.50
2019-01-21T06:53:32.806Z,118.90
2019-01-21T06:58:59.116Z,184.93
2019-01-21T07:03:56.782Z,75.23
2019-01-21T07:08:52.032Z,105.73
2019-01-21T07:14:15.568Z,86.40
2019-01-21T07:19:13.549Z,67.33
2019-01-21T07:24:17.750Z,85.03
2019-01-21T07:29:31.932Z,68.00
2019-01-21T07:34:30.024Z,69.37
2019-01-21T07:39:33.949Z,64.87
2019-01-21T07:44:43.624Z,64.60
2019-01-21T07:49:53.641Z,62.37
2019-01-21T07:54:48.956Z,62.17
2019-01-21T07:59:56.162Z,69.80
2019-01-21T08:04:54.044Z,64.23
2019-01-21T08:10:05.562Z,63.33
2019-01-21T08:15:03.369Z,69.67
2019-01-21T08:20:22.474Z,69.27
2019-01-21T08:25:26.660Z,68.80
2019-01-21T08:30:27.173Z,71.20
2019-01-21T08:35:31.524Z,62.77
2019-01-21T08:40:35.197Z,56.53
2019-01-21T08:45:36.613Z,54.33
2019-01-21T08:50:55.769Z,55.73
2019-01-21T08:55:50.919Z,60.83
2019-01-21T09:00:54.601Z,61.93
2019-01-21T09:05:52.914Z,58.70
2019-01-21T09:10:59.517Z,63.33
2019-01-21T09:15:57.881Z,63.40
2019-01-21T09:21:20.246Z,48.07
2019-01-21T09:26:31.129Z,51.60
2019-01-21T09:31:32.157Z,50.60
2019-01-21T09:36:45.569Z,45.37
2019-01-21T09:41:43.674Z,45.27
2019-01-21T09:46:43.754Z,43.17
2019-01-21T09:51:37.705Z,41.20
2019-01-21T09:56:31.386Z,42.93
2019-01-21T10:01:25.133Z,41.10
2019-01-21T10:06:20.605Z,39.27
2019-01-21T10:11:46.356Z,38.43
2019-01-21T10:16:44.408Z,44.53
2019-01-21T10:21:56.244Z,40.17
2019-01-21T10:27:12.283Z,40.43
2019-01-21T10:32:29.270Z,40.63
2019-01-21T10:37:25.076Z,36.23
2019-01-21T10:42:41.801Z,38.67
2019-01-21T10:47:37.325Z,39.63
2019-01-21T10:52:52.570Z,43.57
2019-01-21T10:57:50.453Z,44.50
2019-01-21T11:02:58.137Z,42.10
2019-01-21T11:08:02.757Z,43.47
2019-01-21T11:13:10.300Z,37.70
2019-01-21T11:18:17.685Z,34.20
2019-01-21T11:23:13.145Z,36.27
2019-01-21T11:28:17.673Z,34.37
2019-01-21T11:33:42.124Z,38.70
2019-01-21T11:38:37.718Z,41.10
2019-01-21T11:43:44.957Z,37.93
2019-01-21T11:48:49.649Z,41.03
2019-01-21T11:53:54.351Z,37.63
2019-01-21T11:58:58.585Z,38.53
2019-01-21T12:04:03.265Z,43.57
2019-01-21T12:09:01.510Z,36.13
2019-01-21T12:14:20.033Z,40.57
2019-01-21T12:19:41.219Z,35.33
2019-01-21T12:24:34.870Z,34.83
2019-01-21T12:29:46.509Z,38.47
2019-01-21T12:34:45.231Z,35.87
2019-01-21T12:39:49.553Z,36.03
2019-01-21T12:45:09.710Z,38.97
2019-01-21T12:50:24.150Z,40.23
2019-01-21T12:55:22.201Z,41.33
2019-01-21T13:00:35.450Z,41.53
2019-01-21T13:05:57.368Z,40.73
2019-01-21T13:11:01.648Z,42.90
2019-01-21T13:16:15.339Z,43.17
2019-01-21T13:21:34.589Z,41.67
2019-01-21T13:26:40.647Z,41.57
2019-01-21T13:31:54.373Z,39.43
2019-01-21T13:36:52.415Z,44.80
2019-01-21T13:41:50.832Z,42.93
2019-01-21T13:47:07.703Z,44.93
2019-01-21T13:52:08.982Z,41.23
2019-01-21T13:57:16.503Z,43.23
2019-01-21T14:02:14.832Z,48.57
2019-01-21T14:07:25.101Z,46.17
2019-01-21T14:12:39.124Z,44.37
2019-01-21T14:17:37.125Z,43.03
2019-01-21T14:22:41.290Z,41.97
2019-01-21T14:27:42.668Z,42.60
2019-01-21T14:32:38.050Z,46.33
2019-01-21T14:37:51.538Z,43.07
2019-01-21T14:42:49.760Z,50.40
2019-01-21T14:48:07.817Z,43.97
2019-01-21T14:53:18.330Z,43.57
2019-01-21T14:58:13.765Z,43.50
2019-01-21T15:03:14.695Z,46.27
2019-01-21T15:08:10.293Z,45.37
2019-01-21T15:13:23.982Z,47.70
2019-01-21T15:18:33.980Z,49.80
2019-01-21T15:23:41.612Z,54.43
2019-01-21T15:28:39.846Z,53.47
2019-01-21T15:33:59.007Z,44.30
2019-01-21T15:39:15.517Z,103.80
2019-01-21T15:44:38.148Z,93.07
2019-01-21T15:49:43.995Z,64.40
2019-01-21T15:54:55.636Z,82.97
2019-01-21T16:00:07.913Z,72.57
2019-01-21T16:05:12.392Z,82.43
2019-01-21T16:10:24.770Z,53.90
2019-01-21T16:15:20.653Z,62.50
2019-01-21T16:20:16.056Z,49.37
2019-01-21T16:25:14.266Z,60.17
2019-01-21T16:30:27.527Z,53.43
2019-01-21T16:35:25.925Z,67.43
2019-01-21T16:40:41.004Z,49.87
2019-01-21T16:45:33.688Z,47.67
2019-01-21T16:50:26.460Z,51.03
2019-01-21T16:55:19.177Z,60.33
2019-01-21T17:00:13.809Z,50.93
2019-01-21T17:05:09.112Z,66.60
2019-01-21T17:10:01.837Z,61.57
2019-01-21T17:14:57.649Z,59.30
2019-01-21T17:19:48.718Z,125.20
2019-01-21T17:24:41.080Z,103.43
2019-01-21T17:29:33.672Z,62.37
2019-01-21T17:34:26.457Z,65.90
2019-01-21T17:39:19.081Z,50.93
2019-01-21T17:44:11.856Z,62.03
2019-01-21T17:49:04.901Z,116.03
2019-01-21T17:53:57.689Z,57.67
2019-01-21T17:58:50.206Z,65.13
2019-01-21T18:03:42.696Z,60.00
2019-01-21T18:08:35.562Z,68.13
2019-01-21T18:13:28.020Z,70.27
2019-01-21T18:18:20.341Z,55.17
2019-01-21T18:23:12.582Z,53.97
2019-01-21T18:28:05.037Z,58.80
2019-01-21T18:32:57.481Z,55.37
2019-01-21T18:37:50.102Z,58.23
2019-01-21T18:42:42.807Z,68.03
2019-01-21T18:47:35.496Z,71.57
2019-01-21T18:52:28.050Z,68.47
2019-01-21T18:57:20.669Z,61.97
2019-01-21T19:02:13.332Z,60.67
2019-01-21T19:07:05.716Z,68.90
2019-01-21T19:11:58.356Z,66.73
2019-01-21T19:16:51.216Z,72.57
2019-01-21T19:21:43.904Z,69.17
2019-01-21T19:26:36.165Z,63.57
2019-01-21T19:31:28.805Z,70.13
2019-01-21T19:36:21.463Z,68.67
2019-01-21T19:41:13.603Z,75.43
2019-01-21T19:46:05.970Z,64.33
2019-01-21T19:50:58.422Z,64.77
2019-01-21T19:55:50.898Z,70.90
2019-01-21T20:00:43.269Z,66.93
2019-01-21T20:05:35.905Z,67.37
2019-01-21T20:10:28.771Z,76.83
2019-01-21T20:15:21.165Z,75.50
2019-01-21T20:20:16.794Z,87.00
2019-01-21T20:25:11.299Z,75.60
2019-01-21T20:30:04.962Z,65.30
2019-01-21T20:34:57.236Z,64.40
2019-01-21T20:39:49.982Z,65.20
2019-01-21T20:44:42.420Z,59.97
2019-01-21T20:49:34.822Z,57.30
2019-01-21T20:54:27.964Z,62.80
2019-01-21T20:59:20.523Z,58.47
2019-01-21T21:04:13.161Z,65.80
2019-01-21T21:09:08.249Z,64.93
2019-01-21T21:14:00.735Z,67.43
2019-01-21T21:18:53.222Z,71.80
2019-01-21T21:23:45.879Z,64.33
2019-01-21T21:28:38.983Z,63.73
2019-01-21T21:33:31.338Z,69.83
2019-01-21T21:38:23.804Z,72.10
2019-01-21T21:43:16.757Z,72.30
2019-01-21T21:48:09.029Z,67.27
2019-01-21T21:53:01.663Z,78.13
2019-01-21T21:57:54.300Z,77.63
2019-01-21T22:02:46.981Z,75.57
2019-01-21T22:07:39.441Z,75.27
2019-01-21T22:12:32.018Z,83.03
2019-01-21T22:17:24.349Z,81.90
2019-01-21T22:22:16.607Z,82.23
2019-01-21T22:27:09.140Z,64.57
2019-01-21T22:32:01.692Z,71.10
2019-01-21T22:36:54.206Z,73.33
2019-01-21T22:41:46.912Z,74.30
2019-01-21T22:46:39.698Z,66.33
2019-01-21T22:51:32.180Z,64.47
2019-01-21T22:56:24.620Z,73.40
2019-01-21T23:01:20.859Z,65.53
2019-01-21T23:06:13.536Z,62.00
2019-01-21T23:11:05.977Z,57.13
2019-01-21T23:15:58.630Z,62.30
2019-01-21T23:20:51.096Z,55.27
2019-01-21T23:25:43.993Z,60.83
2019-01-21T23:30:36.257Z,55.47
2019-01-21T23:35:28.956Z,57.47
2019-01-21T23:40:21.472Z,63.73
2019-01-21T23:45:14.251Z,66.20
2019-01-21T23:50:09.569Z,58.37
2019-01-21T23:55:02.472Z,55.13
2019-01-21T23:59:55.145Z,62.70
